createdAt,value
2018-09-14T00:00:07.227Z,4.73
2018-09-14T00:02:36.296Z,6.47
2018-09-14T00:05:05.462Z,12.50
2018-09-14T00:07:34.584Z,7.33
2018-09-14T00:10:03.591Z,16.47
2018-09-14T00:12:32.931Z,5.17
2018-09-14T00:15:01.984Z,5.20
2018-09-14T00:17:31.076Z,11.33
2018-09-14T00:20:00.356Z,19.10
2018-09-14T00:22:29.343Z,8.73
2018-09-14T00:24:58.320Z,13.97
2018-09-14T00:27:27.284Z,8.37
2018-09-14T00:29:56.559Z,9.00
2018-09-14T00:32:25.515Z,11.47
2018-09-14T00:34:54.509Z,10.60
2018-09-14T00:37:23.407Z,7.93
2018-09-14T00:39:52.409Z,7.63
2018-09-14T00:42:21.471Z,20.40
2018-09-14T00:44:50.453Z,6.67
2018-09-14T00:47:19.464Z,14.87
2018-09-14T00:49:48.584Z,7.53
2018-09-14T00:52:17.665Z,12.87
2018-09-14T00:54:46.612Z,6.30
2018-09-14T00:57:15.517Z,17.50
2018-09-14T00:59:45.877Z,7.47
2018-09-14T01:02:14.772Z,8.50
2018-09-14T01:04:43.662Z,11.07
2018-09-14T01:07:12.457Z,4.87
2018-09-14T01:09:41.306Z,5.57
2018-09-14T01:12:10.224Z,9.20
2018-09-14T01:14:39.079Z,11.37
2018-09-14T01:17:08.113Z,10.83
2018-09-14T01:19:36.972Z,9.03
2018-09-14T01:22:05.867Z,6.10
2018-09-14T01:24:34.841Z,6.73
2018-09-14T01:27:03.630Z,6.43
2018-09-14T01:29:32.522Z,5.77
2018-09-14T01:32:01.334Z,6.90
2018-09-14T01:34:30.316Z,6.67
2018-09-14T01:36:59.264Z,6.70
2018-09-14T01:39:28.095Z,8.37
2018-09-14T01:41:57.085Z,10.50
2018-09-14T01:44:26.116Z,8.60
2018-09-14T01:46:54.909Z,8.10
2018-09-14T01:49:23.793Z,9.10
2018-09-14T01:51:52.755Z,9.50
2018-09-14T01:54:21.636Z,7.83
2018-09-14T01:56:50.518Z,8.50
2018-09-14T01:59:20.405Z,8.13
2018-09-14T02:01:49.259Z,12.10
2018-09-14T02:04:18.303Z,13.23
2018-09-14T02:06:47.244Z,8.00
2018-09-14T02:09:16.210Z,29.53
2018-09-14T02:11:45.129Z,13.27
2018-09-14T02:14:14.064Z,9.93
2018-09-14T02:16:42.849Z,9.10
2018-09-14T02:19:11.680Z,14.20
2018-09-14T02:21:40.595Z,12.97
2018-09-14T02:24:09.565Z,14.33
2018-09-14T02:26:38.545Z,16.10
2018-09-14T02:29:07.432Z,15.90
2018-09-14T02:31:36.240Z,9.73
2018-09-14T02:34:05.256Z,8.77
2018-09-14T02:36:34.140Z,9.70
2018-09-14T02:39:03.197Z,12.50
2018-09-14T02:41:32.098Z,19.33
2018-09-14T02:44:01.028Z,11.33
2018-09-14T02:46:29.997Z,15.27
2018-09-14T02:48:58.977Z,9.23
2018-09-14T02:51:27.905Z,19.93
2018-09-14T02:53:56.894Z,16.00
2018-09-14T02:56:25.791Z,12.40
2018-09-14T02:58:54.776Z,10.47
2018-09-14T03:01:23.569Z,8.63
2018-09-14T03:03:52.405Z,12.43
2018-09-14T03:06:21.331Z,9.40
2018-09-14T03:08:50.167Z,13.17
2018-09-14T03:11:19.119Z,14.13
2018-09-14T03:13:48.009Z,11.53
2018-09-14T03:16:17.132Z,14.50
2018-09-14T03:18:46.128Z,24.53
2018-09-14T03:21:15.245Z,27.87
2018-09-14T03:23:44.492Z,11.47
2018-09-14T03:26:13.740Z,22.63
2018-09-14T03:28:42.598Z,26.60
2018-09-14T03:31:11.410Z,12.80
2018-09-14T03:33:40.245Z,30.00
2018-09-14T03:36:09.140Z,12.53
2018-09-14T03:38:38.089Z,16.63
2018-09-14T03:41:06.972Z,13.57
2018-09-14T03:43:35.884Z,9.40
2018-09-14T03:46:04.790Z,24.83
2018-09-14T03:48:33.627Z,14.00
2018-09-14T03:51:02.505Z,12.70
2018-09-14T03:53:31.437Z,20.93
2018-09-14T03:56:00.352Z,20.03
2018-09-14T03:58:29.317Z,27.93
2018-09-14T04:00:58.280Z,15.90
2018-09-14T04:03:27.224Z,39.90
2018-09-14T04:05:56.153Z,33.17
2018-09-14T04:08:25.060Z,14.60
2018-09-14T04:10:53.921Z,28.93
2018-09-14T04:13:22.837Z,19.23
2018-09-14T04:15:51.819Z,21.27
2018-09-14T04:18:20.793Z,19.37
2018-09-14T04:20:49.696Z,18.27
2018-09-14T04:23:18.577Z,18.43
2018-09-14T04:25:47.581Z,27.27
2018-09-14T04:28:17.827Z,38.43
2018-09-14T04:30:46.843Z,14.13
2018-09-14T04:33:15.865Z,37.70
2018-09-14T04:35:44.776Z,18.10
2018-09-14T04:38:13.880Z,28.00
2018-09-14T04:40:42.853Z,38.33
2018-09-14T04:43:11.738Z,22.87
2018-09-14T04:45:40.799Z,23.53
2018-09-14T04:48:09.829Z,15.37
2018-09-14T04:50:38.815Z,27.80
2018-09-14T04:53:07.763Z,25.63
2018-09-14T04:55:36.691Z,26.20
2018-09-14T04:58:05.804Z,19.13
2018-09-14T05:00:34.768Z,27.20
2018-09-14T05:03:03.789Z,26.97
2018-09-14T05:05:32.728Z,24.10
2018-09-14T05:08:01.735Z,27.83
2018-09-14T05:10:30.682Z,18.10
2018-09-14T05:12:59.629Z,23.67
2018-09-14T05:15:28.674Z,23.43
2018-09-14T05:17:57.791Z,23.03
2018-09-14T05:20:26.879Z,27.03
2018-09-14T05:22:55.752Z,24.77
2018-09-14T05:25:24.794Z,29.33
2018-09-14T05:27:53.744Z,53.17
2018-09-14T05:30:22.866Z,36.17
2018-09-14T05:32:51.884Z,20.27
2018-09-14T05:35:20.864Z,21.60
2018-09-14T05:37:49.841Z,18.60
2018-09-14T05:40:18.784Z,28.73
2018-09-14T05:42:47.958Z,22.97
2018-09-14T05:45:17.008Z,32.50
2018-09-14T05:47:45.847Z,19.03
2018-09-14T05:50:14.883Z,37.17
2018-09-14T05:52:43.889Z,31.23
2018-09-14T05:55:12.960Z,29.03
2018-09-14T05:57:41.915Z,39.83
2018-09-14T06:00:11.089Z,31.20
2018-09-14T06:02:39.998Z,29.83
2018-09-14T06:05:08.988Z,33.20
2018-09-14T06:07:37.878Z,35.50
2018-09-14T06:10:07.488Z,38.03
2018-09-14T06:12:36.373Z,24.83
2018-09-14T06:15:05.431Z,27.30
2018-09-14T06:17:34.420Z,30.37
2018-09-14T06:20:03.495Z,25.83
2018-09-14T06:22:32.605Z,25.07
2018-09-14T06:25:01.427Z,31.53
2018-09-14T06:27:30.475Z,27.93
2018-09-14T06:29:59.454Z,28.30
2018-09-14T06:32:28.788Z,39.67
2018-09-14T06:34:57.745Z,35.23
2018-09-14T06:37:26.716Z,31.93
2018-09-14T06:39:55.585Z,29.20
2018-09-14T06:42:24.602Z,28.40
2018-09-14T06:44:53.615Z,45.10
2018-09-14T06:47:22.545Z,27.80
2018-09-14T06:49:57.167Z,31.77
2018-09-14T06:52:26.125Z,27.70
2018-09-14T06:54:55.189Z,28.93
2018-09-14T06:57:24.109Z,43.37
2018-09-14T06:59:55.276Z,32.83
2018-09-14T07:02:24.344Z,33.07
2018-09-14T07:04:53.393Z,29.73
2018-09-14T07:07:22.377Z,34.23
2018-09-14T07:09:52.457Z,32.93
2018-09-14T07:12:21.397Z,36.47
2018-09-14T07:14:50.320Z,35.07
2018-09-14T07:17:19.356Z,42.90
2018-09-14T07:19:48.255Z,33.67
2018-09-14T07:22:17.393Z,40.00
2018-09-14T07:24:46.407Z,36.87
2018-09-14T07:27:15.348Z,41.10
2018-09-14T07:29:44.386Z,36.40
2018-09-14T07:32:31.314Z,35.47
2018-09-14T07:35:00.275Z,39.97
2018-09-14T07:37:29.200Z,43.07
2018-09-14T07:39:58.284Z,41.43
2018-09-14T07:42:27.324Z,45.13
2018-09-14T07:44:56.165Z,47.40
2018-09-14T07:47:25.223Z,61.17
2018-09-14T07:49:54.113Z,76.53
2018-09-14T07:52:30.752Z,51.63
2018-09-14T07:54:59.711Z,63.03
2018-09-14T07:57:28.701Z,40.93
2018-09-14T07:59:57.719Z,39.70
2018-09-14T08:02:27.697Z,43.77
2018-09-14T08:04:56.672Z,37.47
2018-09-14T08:07:25.781Z,49.40
2018-09-14T08:09:54.721Z,33.10
2018-09-14T08:12:30.830Z,46.77
2018-09-14T08:14:59.753Z,40.40
2018-09-14T08:17:28.796Z,49.07
2018-09-14T08:19:57.868Z,46.90
2018-09-14T08:22:27.997Z,44.03
2018-09-14T08:24:57.149Z,61.93
2018-09-14T08:27:26.238Z,33.87
2018-09-14T08:29:55.120Z,37.83
2018-09-14T08:32:26.227Z,37.93
2018-09-14T08:34:55.216Z,31.67
2018-09-14T08:37:24.313Z,34.83
2018-09-14T08:39:53.265Z,28.80
2018-09-14T08:42:24.218Z,23.93
2018-09-14T08:44:53.448Z,35.07
2018-09-14T08:47:22.447Z,34.23
2018-09-14T08:49:51.465Z,42.67
2018-09-14T08:52:47.171Z,26.63
2018-09-14T08:55:16.178Z,38.03
2018-09-14T08:57:45.182Z,25.13
2018-09-14T09:00:17.206Z,16.67
2018-09-14T09:03:03.447Z,20.57
2018-09-14T09:05:32.471Z,17.43
2018-09-14T09:08:01.540Z,15.60
2018-09-14T09:10:30.854Z,15.90
2018-09-14T09:12:59.809Z,16.47
2018-09-14T09:15:28.989Z,15.67
2018-09-14T09:17:59.697Z,26.27
2018-09-14T09:20:38.966Z,43.67
2018-09-14T09:23:15.613Z,15.13
2018-09-14T09:25:44.557Z,16.47
2018-09-14T09:28:13.441Z,15.60
2018-09-14T09:30:42.365Z,21.10
2018-09-14T09:33:11.364Z,13.33
2018-09-14T09:35:45.858Z,13.93
2018-09-14T09:38:18.172Z,16.67
2018-09-14T09:40:47.137Z,19.60
2018-09-14T09:43:24.979Z,11.30
2018-09-14T09:45:53.824Z,10.90
2018-09-14T09:48:22.864Z,10.20
2018-09-14T09:50:52.826Z,19.27
2018-09-14T09:53:23.788Z,11.00
2018-09-14T09:55:53.728Z,9.53
2018-09-14T09:58:22.608Z,12.63
2018-09-14T10:00:57.478Z,9.20
2018-09-14T10:03:43.675Z,16.73
2018-09-14T10:06:17.575Z,10.77
2018-09-14T10:08:46.608Z,12.93
2018-09-14T10:11:15.535Z,10.20
2018-09-14T10:13:48.548Z,14.80
2018-09-14T10:16:17.525Z,13.83
2018-09-14T10:18:46.385Z,6.73
2018-09-14T10:21:15.373Z,12.23
2018-09-14T10:24:07.916Z,10.37
2018-09-14T10:26:36.811Z,11.57
2018-09-14T10:29:05.762Z,20.13
2018-09-14T10:31:47.238Z,8.87
2018-09-14T10:34:16.273Z,8.60
2018-09-14T10:36:45.181Z,30.03
2018-09-14T10:39:14.124Z,11.50
2018-09-14T10:41:52.360Z,10.20
2018-09-14T10:44:21.353Z,14.47
2018-09-14T10:46:50.459Z,7.40
2018-09-14T10:49:19.425Z,12.10
2018-09-14T10:51:50.589Z,11.90
2018-09-14T10:54:19.563Z,8.60
2018-09-14T10:56:48.466Z,8.10
2018-09-14T10:59:17.430Z,27.50
2018-09-14T11:01:46.324Z,9.00
2018-09-14T11:04:15.406Z,10.23
2018-09-14T11:06:44.515Z,66.83
2018-09-14T11:09:14.462Z,22.33
2018-09-14T11:11:43.545Z,23.70
2018-09-14T11:14:15.970Z,9.13
2018-09-14T11:16:44.810Z,10.67
2018-09-14T11:19:13.768Z,7.10
2018-09-14T11:21:42.625Z,9.37
2018-09-14T11:24:32.013Z,8.33
2018-09-14T11:27:00.920Z,15.13
2018-09-14T11:29:29.904Z,7.40
2018-09-14T11:31:58.824Z,15.30
2018-09-14T11:34:27.801Z,18.60
2018-09-14T11:36:56.794Z,12.83
2018-09-14T11:39:25.693Z,42.90
2018-09-14T11:41:54.668Z,7.13
2018-09-14T11:44:44.473Z,7.70
2018-09-14T11:47:13.452Z,7.33
2018-09-14T11:49:42.361Z,7.10
2018-09-14T11:52:11.324Z,19.87
2018-09-14T11:54:40.274Z,9.50
2018-09-14T11:57:09.130Z,6.87
2018-09-14T11:59:37.968Z,7.83
2018-09-14T12:02:06.969Z,7.27
2018-09-14T12:04:36.929Z,7.50
2018-09-14T12:07:05.789Z,6.60
2018-09-14T12:09:34.772Z,9.00
2018-09-14T12:12:03.809Z,13.43
2018-09-14T12:14:33.893Z,9.53
2018-09-14T12:17:02.811Z,7.10
2018-09-14T12:19:31.811Z,8.87
2018-09-14T12:22:00.748Z,8.07
2018-09-14T12:24:29.728Z,9.07
2018-09-14T12:26:58.655Z,8.13
2018-09-14T12:29:27.711Z,12.50
2018-09-14T12:31:56.687Z,17.03
2018-09-14T12:34:27.617Z,9.40
2018-09-14T12:36:56.477Z,28.43
2018-09-14T12:39:25.477Z,30.20
2018-09-14T12:41:54.431Z,9.37
2018-09-14T12:44:24.405Z,8.43
2018-09-14T12:46:53.288Z,13.13
2018-09-14T12:49:22.175Z,16.80
2018-09-14T12:51:51.093Z,10.23
2018-09-14T12:54:20.236Z,10.60
2018-09-14T12:56:49.212Z,23.10
2018-09-14T12:59:18.154Z,19.87
2018-09-14T13:01:47.014Z,19.30
2018-09-14T13:04:19.737Z,19.10
2018-09-14T13:06:48.632Z,34.03
2018-09-14T13:09:17.537Z,14.67
2018-09-14T13:11:46.531Z,33.77
2018-09-14T13:14:20.026Z,13.67
2018-09-14T13:16:49.295Z,12.30
2018-09-14T13:19:18.271Z,13.57
2018-09-14T13:21:47.169Z,10.57
2018-09-14T13:24:18.237Z,10.03
2018-09-14T13:26:47.073Z,12.67
2018-09-14T13:29:16.014Z,12.40
2018-09-14T13:31:45.009Z,10.93
2018-09-14T13:34:21.732Z,26.73
2018-09-14T13:36:50.961Z,10.90
2018-09-14T13:39:19.860Z,15.27
2018-09-14T13:41:48.708Z,10.50
2018-09-14T13:44:18.680Z,17.40
2018-09-14T13:46:47.627Z,20.43
2018-09-14T13:49:16.566Z,10.60
2018-09-14T13:51:45.561Z,11.70
2018-09-14T13:54:14.647Z,20.00
2018-09-14T13:56:43.822Z,10.07
2018-09-14T13:59:12.817Z,9.97
2018-09-14T14:01:41.863Z,9.43
2018-09-14T14:04:17.721Z,9.80
2018-09-14T14:06:46.825Z,6.27
2018-09-14T14:09:15.681Z,7.83
2018-09-14T14:11:44.547Z,7.93
2018-09-14T14:14:14.533Z,13.70
2018-09-14T14:16:43.438Z,9.50
2018-09-14T14:19:12.413Z,8.47
2018-09-14T14:21:41.336Z,8.00
2018-09-14T14:24:10.265Z,6.70
2018-09-14T14:26:39.167Z,9.10
2018-09-14T14:29:08.043Z,8.13
2018-09-14T14:31:37.013Z,6.70
2018-09-14T14:34:07.023Z,7.83
2018-09-14T14:36:36.053Z,8.03
2018-09-14T14:39:06.233Z,6.10
2018-09-14T14:41:35.206Z,9.47
2018-09-14T14:44:04.144Z,7.57
2018-09-14T14:46:33.164Z,13.93
2018-09-14T14:49:02.232Z,9.40
2018-09-14T14:51:31.125Z,8.07
2018-09-14T14:54:00.133Z,7.10
2018-09-14T14:56:29.105Z,7.80
2018-09-14T14:58:58.006Z,13.53
2018-09-14T15:01:26.851Z,14.27
2018-09-14T15:03:55.738Z,8.77
2018-09-14T15:06:26.697Z,7.97
2018-09-14T15:08:55.593Z,10.03
2018-09-14T15:11:24.557Z,11.80
2018-09-14T15:13:53.481Z,8.50
2018-09-14T15:16:23.637Z,11.07
2018-09-14T15:18:52.470Z,18.03
2018-09-14T15:21:21.446Z,6.40
2018-09-14T15:23:50.453Z,12.13
2018-09-14T15:26:19.461Z,7.23
2018-09-14T15:28:48.380Z,8.77
2018-09-14T15:31:17.302Z,7.57
2018-09-14T15:33:46.263Z,7.90
2018-09-14T15:36:17.262Z,8.70
2018-09-14T15:38:46.169Z,7.67
2018-09-14T15:41:15.197Z,6.63
2018-09-14T15:43:44.167Z,20.27
2018-09-14T15:46:15.143Z,7.33
2018-09-14T15:48:44.027Z,7.57
2018-09-14T15:51:12.906Z,6.07
2018-09-14T15:53:41.842Z,9.90
2018-09-14T15:56:11.792Z,11.37
2018-09-14T15:58:40.649Z,6.70
2018-09-14T16:01:09.532Z,13.23
2018-09-14T16:03:38.461Z,7.43
2018-09-14T16:06:08.407Z,6.37
2018-09-14T16:08:37.275Z,8.03
2018-09-14T16:11:07.011Z,16.20
2018-09-14T16:13:35.963Z,6.90
2018-09-14T16:16:05.964Z,7.27
2018-09-14T16:18:34.829Z,7.10
2018-09-14T16:21:03.869Z,8.20
2018-09-14T16:23:32.799Z,6.60
2018-09-14T16:26:02.805Z,7.50
2018-09-14T16:28:31.695Z,6.23
2018-09-14T16:31:00.551Z,7.20
2018-09-14T16:33:29.525Z,7.17
2018-09-14T16:35:58.372Z,6.07
2018-09-14T16:38:27.269Z,6.63
2018-09-14T16:40:56.213Z,5.37
2018-09-14T16:43:25.155Z,7.13
2018-09-14T16:45:55.132Z,9.63
2018-09-14T16:48:24.101Z,6.30
2018-09-14T16:50:53.012Z,11.70
2018-09-14T16:53:21.939Z,11.83
2018-09-14T16:56:01.281Z,6.97
2018-09-14T16:58:30.269Z,11.97
2018-09-14T17:00:59.189Z,9.80
2018-09-14T17:03:28.230Z,11.10
2018-09-14T17:06:08.203Z,21.37
2018-09-14T17:08:37.241Z,12.57
2018-09-14T17:11:06.186Z,9.93
2018-09-14T17:13:35.223Z,13.40
2018-09-14T17:16:04.225Z,8.60
2018-09-14T17:18:33.147Z,15.23
2018-09-14T17:21:02.133Z,13.17
2018-09-14T17:23:31.086Z,14.40
2018-09-14T17:26:00.064Z,20.70
2018-09-14T17:28:29.009Z,27.03
2018-09-14T17:30:57.865Z,14.43
2018-09-14T17:33:26.927Z,8.63
2018-09-14T17:36:00.752Z,7.57
2018-09-14T17:38:29.703Z,8.67
2018-09-14T17:40:58.645Z,18.93
2018-09-14T17:43:27.744Z,10.10
2018-09-14T17:46:04.044Z,9.43
2018-09-14T17:48:33.029Z,13.90
2018-09-14T17:51:01.881Z,6.53
2018-09-14T17:53:30.807Z,11.50
2018-09-14T17:56:07.172Z,9.77
2018-09-14T17:58:36.067Z,19.83
2018-09-14T18:01:05.084Z,9.87
2018-09-14T18:03:34.009Z,8.37
2018-09-14T18:06:10.206Z,8.27
2018-09-14T18:08:39.125Z,17.47
2018-09-14T18:11:08.127Z,12.53
2018-09-14T18:13:37.171Z,9.97
2018-09-14T18:16:14.187Z,10.33
2018-09-14T18:18:43.092Z,13.77
2018-09-14T18:21:12.045Z,7.57
2018-09-14T18:23:40.947Z,8.03
2018-09-14T18:26:10.928Z,8.80
2018-09-14T18:28:39.965Z,7.23
2018-09-14T18:31:08.934Z,6.57
2018-09-14T18:33:37.871Z,6.33
2018-09-14T18:36:06.784Z,7.17
2018-09-14T18:38:35.717Z,7.80
2018-09-14T18:41:04.786Z,7.57
2018-09-14T18:43:33.748Z,9.60
2018-09-14T18:46:02.628Z,14.80
2018-09-14T18:48:31.565Z,18.60
2018-09-14T18:51:00.538Z,9.30
2018-09-14T18:53:29.367Z,8.47
2018-09-14T18:55:58.363Z,9.73
2018-09-14T18:58:32.859Z,8.87
2018-09-14T19:01:01.879Z,8.70
2018-09-14T19:03:30.844Z,10.70
2018-09-14T19:05:59.796Z,7.00
2018-09-14T19:08:36.816Z,9.03
2018-09-14T19:11:05.677Z,11.57
2018-09-14T19:13:34.678Z,7.83
2018-09-14T19:16:03.612Z,9.03
2018-09-14T19:18:32.486Z,27.90
2018-09-14T19:21:01.438Z,9.33
2018-09-14T19:23:30.256Z,11.07
2018-09-14T19:25:59.406Z,11.33
2018-09-14T19:28:41.059Z,22.30
2018-09-14T19:31:10.021Z,9.47
2018-09-14T19:33:38.995Z,8.30
2018-09-14T19:36:08.025Z,19.93
2018-09-14T19:38:37.085Z,9.70
2018-09-14T19:41:06.123Z,10.90
2018-09-14T19:43:34.976Z,11.00
2018-09-14T19:46:03.985Z,8.87
2018-09-14T19:48:33.938Z,11.43
2018-09-14T19:51:02.755Z,15.63
2018-09-14T19:53:31.691Z,18.70
2018-09-14T19:56:00.569Z,10.80
2018-09-14T19:58:29.472Z,12.00
2018-09-14T20:00:58.453Z,14.23
2018-09-14T20:03:27.237Z,14.27
2018-09-14T20:05:56.269Z,9.37
2018-09-14T20:08:32.949Z,13.07
2018-09-14T20:11:01.844Z,11.53
2018-09-14T20:13:30.696Z,13.23
2018-09-14T20:15:59.620Z,10.93
2018-09-14T20:18:28.503Z,9.10
2018-09-14T20:20:57.327Z,11.13
2018-09-14T20:23:26.240Z,8.43
2018-09-14T20:25:55.218Z,29.87
2018-09-14T20:28:24.157Z,15.73
2018-09-14T20:30:53.113Z,22.07
2018-09-14T20:33:22.103Z,8.20
2018-09-14T20:35:51.131Z,8.20
2018-09-14T20:38:20.072Z,8.73
2018-09-14T20:40:49.024Z,9.57
2018-09-14T20:43:17.912Z,8.73
2018-09-14T20:45:46.952Z,8.13
2018-09-14T20:48:15.832Z,7.33
2018-09-14T20:50:44.708Z,8.10
2018-09-14T20:53:13.572Z,10.47
2018-09-14T20:55:42.631Z,7.53
2018-09-14T20:58:11.594Z,6.73
2018-09-14T21:00:40.408Z,9.17
2018-09-14T21:03:09.311Z,13.90
2018-09-14T21:05:38.278Z,9.60
2018-09-14T21:08:07.308Z,8.23
2018-09-14T21:10:36.361Z,10.53
2018-09-14T21:13:05.308Z,7.60
2018-09-14T21:15:34.208Z,7.07
2018-09-14T21:18:03.208Z,6.67
2018-09-14T21:20:32.152Z,7.40
2018-09-14T21:23:00.972Z,9.97
2018-09-14T21:25:29.752Z,8.90
2018-09-14T21:27:58.936Z,17.87
2018-09-14T21:30:27.943Z,6.87
2018-09-14T21:32:56.953Z,5.73
2018-09-14T21:35:25.910Z,6.23
2018-09-14T21:37:54.768Z,5.40
2018-09-14T21:40:23.728Z,5.13
2018-09-14T21:42:52.554Z,7.80
2018-09-14T21:45:21.352Z,7.47
2018-09-14T21:47:53.870Z,4.97
2018-09-14T21:50:22.797Z,4.23
2018-09-14T21:52:51.682Z,3.93
2018-09-14T21:55:20.763Z,3.43
2018-09-14T21:57:49.646Z,7.63
2018-09-14T22:00:23.796Z,9.20
2018-09-14T22:02:52.818Z,3.20
2018-09-14T22:05:21.656Z,4.27
2018-09-14T22:07:50.504Z,3.00
2018-09-14T22:10:19.434Z,3.23
2018-09-14T22:12:48.477Z,3.40
2018-09-14T22:15:17.281Z,3.00
2018-09-14T22:17:46.245Z,5.93
2018-09-14T22:20:15.193Z,2.37
2018-09-14T22:22:44.009Z,5.03
2018-09-14T22:25:13.481Z,3.13
2018-09-14T22:27:42.617Z,2.67
2018-09-14T22:30:11.529Z,2.53
2018-09-14T22:32:40.444Z,2.93
2018-09-14T22:35:09.308Z,4.10
2018-09-14T22:37:38.257Z,2.47
2018-09-14T22:40:07.254Z,7.63
2018-09-14T22:42:36.327Z,2.30
2018-09-14T22:45:05.339Z,2.33
2018-09-14T22:47:34.338Z,2.63
2018-09-14T22:50:03.228Z,2.37
2018-09-14T22:52:32.107Z,1.90
2018-09-14T22:55:00.880Z,2.90
2018-09-14T22:57:32.763Z,2.87
2018-09-14T23:00:01.682Z,8.60
2018-09-14T23:02:30.606Z,7.73
2018-09-14T23:04:59.408Z,4.97
2018-09-14T23:07:28.392Z,2.03
2018-09-14T23:09:57.254Z,3.50
2018-09-14T23:12:26.242Z,3.40
2018-09-14T23:14:55.045Z,2.63
2018-09-14T23:17:24.038Z,3.47
2018-09-14T23:19:52.993Z,2.70
2018-09-14T23:22:21.900Z,2.63
2018-09-14T23:24:50.701Z,2.53
2018-09-14T23:27:19.661Z,3.37
2018-09-14T23:29:48.517Z,4.47
2018-09-14T23:32:17.352Z,2.50
2018-09-14T23:34:46.300Z,13.20
2018-09-14T23:37:15.199Z,2.07
2018-09-14T23:39:44.152Z,2.07
2018-09-14T23:42:12.944Z,2.70
2018-09-14T23:44:42.247Z,6.40
2018-09-14T23:47:11.174Z,3.37
2018-09-14T23:49:40.155Z,7.60
2018-09-14T23:52:09.071Z,2.47
2018-09-14T23:54:38.074Z,2.57
2018-09-14T23:57:06.950Z,3.07
2018-09-14T23:59:36.006Z,2.20
